Time;durP1;ratioP1;P1;durP2;ratioP2;P2;SDS_P1;SDS_P2;PMS_P1;PMS_P2;Temp;Humidity;BMP_temperature;BMP_pressure;BME280_temperature;BME280_humidity;BME280_pressure;Samples;Min_cycle;Max_cycle;Signal;HPM_P1;HPM_P2
2022/02/24 00:00:17;;;;;;;7.28;3.55;;;;;;;1.10;74.16;97318.72;1689075;84;21102;-83
2022/02/24 00:02:45;;;;;;;5.80;3.33;;;;;;;1.08;74.19;97316.73;1689148;85;21362;-83
2022/02/24 00:05:12;;;;;;;7.92;2.70;;;;;;;1.04;74.22;97312.27;1689451;84;21007;-83
2022/02/24 00:07:38;;;;;;;7.10;3.20;;;;;;;1.03;74.27;97307.26;1689185;85;21039;-83
2022/02/24 00:10:07;;;;;;;10.20;3.15;;;;;;;1.01;74.36;97307.36;1689242;85;21350;-83
2022/02/24 00:12:34;;;;;;;9.85;3.75;;;;;;;1.00;74.38;97310.02;1669329;85;21007;-83
2022/02/24 00:15:01;;;;;;;9.18;3.33;;;;;;;0.97;74.37;97300.78;1689182;85;21418;-83
2022/02/24 00:17:27;;;;;;;8.95;3.42;;;;;;;0.96;74.43;97300.88;1669593;85;21003;-83
2022/02/24 00:19:53;;;;;;;8.08;2.98;;;;;;;0.95;74.50;97300.52;1689166;84;21074;-83
2022/02/24 00:22:19;;;;;;;10.55;4.50;;;;;;;0.93;74.54;97298.53;1689189;84;21373;-83
2022/02/24 00:24:45;;;;;;;7.42;3.05;;;;;;;0.91;74.54;97297.35;1689308;84;20975;-83
2022/02/24 00:27:11;;;;;;;8.35;3.10;;;;;;;0.89;74.56;97294.08;1689046;85;21497;-83
2022/02/24 00:29:37;;;;;;;5.55;3.10;;;;;;;0.88;74.61;97297.09;1689080;84;21097;-83
2022/02/24 00:32:05;;;;;;;7.22;2.72;;;;;;;0.86;74.65;97295.56;1689264;85;21071;-84
2022/02/24 00:34:31;;;;;;;5.37;2.90;;;;;;;0.83;74.70;97291.92;1685789;83;20947;-83
2022/02/24 00:36:57;;;;;;;7.47;3.00;;;;;;;0.83;74.77;97296.58;1668672;85;21460;-84
2022/02/24 00:39:23;;;;;;;7.58;3.05;;;;;;;0.81;74.80;97294.59;1688926;84;21023;-83
2022/02/24 00:41:48;;;;;;;7.87;2.98;;;;;;;0.81;74.88;97293.73;1689226;85;21027;-83
2022/02/24 00:44:15;;;;;;;8.15;3.90;;;;;;;0.79;74.99;97287.90;1689167;85;21408;-83
2022/02/24 00:46:41;;;;;;;7.42;2.90;;;;;;;0.78;75.01;97290.10;1689046;85;21374;-83
2022/02/24 00:49:07;;;;;;;7.50;3.67;;;;;;;0.76;75.14;97288.11;1689232;85;20979;-83
2022/02/24 00:51:33;;;;;;;6.60;2.42;;;;;;;0.74;75.16;97289.95;1688937;84;21034;-83
2022/02/24 00:53:59;;;;;;;7.20;4.08;;;;;;;0.74;75.21;97280.99;1689118;84;20999;-83
2022/02/24 00:56:25;;;;;;;4.95;2.30;;;;;;;0.72;75.16;97287.48;1690264;84;20980;-83
2022/02/24 00:58:51;;;;;;;7.97;2.77;;;;;;;0.73;75.17;97287.84;1700963;84;21074;-84
2022/02/24 01:01:17;;;;;;;5.05;3.33;;;;;;;0.73;75.21;97289.59;1701123;84;21027;-83
2022/02/24 01:03:43;;;;;;;6.03;3.08;;;;;;;0.72;75.18;97290.05;1701141;84;21405;-83
2022/02/24 01:06:09;;;;;;;5.50;3.10;;;;;;;0.70;75.25;97292.34;1701199;84;21010;-83
2022/02/24 01:08:34;;;;;;;7.75;3.00;;;;;;;0.69;75.24;97290.71;1681224;84;20983;-83
2022/02/24 01:11:00;;;;;;;8.65;3.30;;;;;;;0.66;75.31;97281.96;1681100;84;21066;-82
2022/02/24 01:13:26;;;;;;;6.22;3.10;;;;;;;0.66;75.27;97280.69;1701098;84;20943;-83
2022/02/24 01:15:51;;;;;;;7.95;2.80;;;;;;;0.63;75.28;97279.58;1701060;84;21334;-83
2022/02/24 01:18:17;;;;;;;6.60;2.90;;;;;;;0.61;75.29;97282.23;1700966;84;21057;-83
2022/02/24 01:20:43;;;;;;;6.55;3.35;;;;;;;0.58;75.35;97271.75;1681296;84;20998;-83
2022/02/24 01:23:08;;;;;;;6.95;3.72;;;;;;;0.57;75.34;97280.80;1701115;84;21445;-83
2022/02/24 01:25:34;;;;;;;7.78;2.80;;;;;;;0.56;75.35;97274.86;1700994;84;20998;-83
2022/02/24 01:28:00;;;;;;;11.30;2.95;;;;;;;0.55;75.41;97271.13;1701175;84;21050;-83
2022/02/24 01:30:26;;;;;;;5.87;3.08;;;;;;;0.55;75.45;97270.67;1701159;84;21453;-83
2022/02/24 01:32:52;;;;;;;6.03;2.72;;;;;;;0.53;75.47;97267.39;1701302;84;21022;-83
2022/02/24 01:35:17;;;;;;;7.62;3.02;;;;;;;0.53;75.46;97267.39;1701307;84;21042;-83
2022/02/24 01:37:45;;;;;;;5.42;2.60;;;;;;;0.52;75.51;97270.05;1701442;84;21022;-84
2022/02/24 01:40:12;;;;;;;6.08;2.67;;;;;;;0.51;75.46;97268.41;1701230;84;21091;-83
2022/02/24 01:42:38;;;;;;;4.90;2.42;;;;;;;0.49;75.47;97265.95;1701320;84;21017;-83
2022/02/24 01:45:05;;;;;;;7.62;2.55;;;;;;;0.49;75.52;97258.28;1701269;84;21007;-83
2022/02/24 01:47:30;;;;;;;5.45;2.87;;;;;;;0.47;75.55;97261.38;1701503;84;21002;-83
2022/02/24 01:49:56;;;;;;;5.40;3.17;;;;;;;0.46;75.58;97263.57;1701306;84;21429;-83
2022/02/24 01:52:22;;;;;;;5.25;2.83;;;;;;;0.45;75.65;97261.94;1681391;84;20986;-83
2022/02/24 01:54:49;;;;;;;8.45;3.22;;;;;;;0.43;75.59;97252.72;1701230;84;21037;-83
2022/02/24 01:57:15;;;;;;;6.85;2.70;;;;;;;0.41;75.61;97252.83;1696796;84;21039;-83
2022/02/24 01:59:41;;;;;;;5.85;2.60;;;;;;;0.40;75.58;97252.47;1689043;85;21070;-83
2022/02/24 02:02:08;;;;;;;6.65;3.90;;;;;;;0.40;75.62;97245.25;1689210;84;20987;-84
2022/02/24 02:04:36;;;;;;;5.28;2.60;;;;;;;0.37;75.76;97241.63;1689221;85;21055;-83
2022/02/24 02:07:03;;;;;;;4.58;2.70;;;;;;;0.38;75.70;97245.81;1689411;84;21067;-83
2022/02/24 02:09:30;;;;;;;7.42;2.87;;;;;;;0.36;75.58;97243.81;1689214;84;21003;-83
2022/02/24 02:11:55;;;;;;;11.15;3.35;;;;;;;0.35;75.62;97241.72;1689176;84;20995;-84
2022/02/24 02:14:21;;;;;;;6.80;3.00;;;;;;;0.34;75.77;97241.83;1689261;84;20980;-83
2022/02/24 02:16:49;;;;;;;6.90;3.02;;;;;;;0.35;75.74;97234.52;1689373;84;20967;-83
2022/02/24 02:19:15;;;;;;;7.37;2.80;;;;;;;0.35;75.69;97242.18;1689276;85;21066;-84
2022/02/24 02:21:42;;;;;;;6.33;2.85;;;;;;;0.37;75.68;97232.22;1689173;85;21425;-83
2022/02/24 02:24:08;;;;;;;7.80;2.95;;;;;;;0.36;75.66;97228.02;1669752;85;21087;-84
2022/02/24 02:26:33;;;;;;;4.33;2.80;;;;;;;0.38;75.83;97229.20;1689282;84;21074;-83
2022/02/24 02:29:00;;;;;;;8.08;2.92;;;;;;;0.38;75.75;97234.31;1689109;84;21618;-83
2022/02/24 02:31:26;;;;;;;7.53;3.00;;;;;;;0.38;75.82;97236.41;1689236;85;20995;-83
2022/02/24 02:34:08;;;;;;;7.17;2.67;;;;;;;0.39;75.88;97234.21;1689393;83;20944;-83
2022/02/24 02:36:34;;;;;;;5.25;2.85;;;;;;;0.41;75.87;97231.09;1692687;84;21018;-83
2022/02/24 02:39:00;;;;;;;7.85;3.15;;;;;;;0.43;75.72;97239.94;1661527;86;21042;-83
2022/02/24 02:41:30;;;;;;;5.33;2.67;;;;;;;0.44;75.77;97240.30;1661670;86;21374;-83
2022/02/24 02:43:56;;;;;;;6.60;2.90;;;;;;;0.46;75.76;97234.16;1661372;86;21011;-83
2022/02/24 02:46:22;;;;;;;4.17;2.80;;;;;;;0.47;75.68;97230.69;1661584;86;20999;-83
2022/02/24 02:48:48;;;;;;;3.75;2.40;;;;;;;0.48;75.52;97234.87;1661485;86;21350;-83
2022/02/24 02:51:14;;;;;;;5.37;2.45;;;;;;;0.51;75.55;97235.17;1661460;86;21037;-83
2022/02/24 02:53:39;;;;;;;5.95;3.15;;;;;;;0.52;75.54;97235.07;1661511;86;21014;-83
2022/02/24 02:56:05;;;;;;;7.15;2.58;;;;;;;0.51;75.49;97232.16;1642407;86;21358;-83
2022/02/24 02:58:31;;;;;;;6.47;2.50;;;;;;;0.53;75.36;97236.70;1669768;86;21076;-83
2022/02/24 03:00:57;;;;;;;9.13;3.20;;;;;;;0.54;75.20;97234.97;1672394;86;21079;-83
2022/02/24 03:03:24;;;;;;;8.13;3.00;;;;;;;0.53;75.15;97230.77;1672530;86;21007;-82
2022/02/24 03:05:52;;;;;;;7.12;3.08;;;;;;;0.52;75.21;97219.73;1672485;86;21047;-83
2022/02/24 03:08:18;;;;;;;6.33;2.90;;;;;;;0.54;75.15;97220.44;1672625;86;21389;-83
2022/02/24 03:10:44;;;;;;;7.30;2.70;;;;;;;0.55;75.12;97222.08;1672433;86;21397;-84
2022/02/24 03:13:09;;;;;;;6.97;3.20;;;;;;;0.59;75.12;97222.69;1672452;86;20988;-83
2022/02/24 03:15:35;;;;;;;5.45;2.60;;;;;;;0.63;75.20;97220.75;1641716;86;21382;-83
2022/02/24 03:18:01;;;;;;;8.73;3.05;;;;;;;0.68;74.90;97215.72;1672480;85;21413;-83
2022/02/24 03:20:30;;;;;;;5.90;2.45;;;;;;;0.74;74.67;97215.77;1672579;86;20979;-83
2022/02/24 03:22:54;;;;;;;7.95;2.67;;;;;;;0.75;74.52;97214.38;1672037;86;21315;-83
2022/02/24 03:25:20;;;;;;;5.00;2.47;;;;;;;0.77;74.35;97210.44;1672407;85;21074;-83
2022/02/24 03:27:46;;;;;;;4.15;2.60;;;;;;;0.79;74.34;97209.88;1672535;86;21015;-84
2022/02/24 03:30:12;;;;;;;5.83;2.90;;;;;;;0.77;74.46;97212.53;1672450;86;20996;-83
2022/02/24 03:32:38;;;;;;;4.75;2.10;;;;;;;0.70;74.47;97203.64;1672549;86;21038;-83
2022/02/24 03:35:04;;;;;;;8.18;3.80;;;;;;;0.70;74.34;97206.66;1683903;83;21040;-83
2022/02/24 03:37:30;;;;;;;6.47;2.55;;;;;;;0.72;74.22;97200.98;1676234;84;21031;-83
2022/02/24 03:39:56;;;;;;;13.48;3.50;;;;;;;0.75;73.89;97191.36;1700575;84;21166;-83
2022/02/24 03:42:22;;;;;;;8.33;2.98;;;;;;;0.83;74.15;97190.41;1700599;84;21118;-83
2022/02/24 03:44:48;;;;;;;8.95;2.90;;;;;;;0.88;73.84;97190.91;1700654;84;20995;-83
2022/02/24 03:47:14;;;;;;;4.83;2.30;;;;;;;0.90;74.08;97189.06;1700729;84;21070;-83
2022/02/24 03:49:39;;;;;;;5.65;2.33;;;;;;;0.87;73.60;97176.48;1700474;84;21404;-83
2022/02/24 03:52:06;;;;;;;4.95;2.55;;;;;;;0.94;73.64;97178.62;1700673;84;21127;-83
2022/02/24 03:54:32;;;;;;;9.80;3.67;;;;;;;0.96;73.60;97181.89;1700695;84;21027;-83
2022/02/24 03:56:57;;;;;;;5.75;2.58;;;;;;;0.94;73.62;97169.20;1700675;84;21037;-83
2022/02/24 03:59:24;;;;;;;5.30;3.55;;;;;;;0.98;72.87;97160.42;1700646;84;21086;-83
2022/02/24 04:01:49;;;;;;;5.95;2.67;;;;;;;1.06;72.73;97162.45;1701167;84;21401;-83
2022/02/24 04:04:15;;;;;;;5.85;2.45;;;;;;;1.08;72.55;97147.34;1701077;84;21002;-83
2022/02/24 04:06:41;;;;;;;8.95;2.67;;;;;;;1.13;72.24;97147.02;1701057;84;21042;-83
2022/02/24 04:09:07;;;;;;;11.00;2.70;;;;;;;1.20;71.83;97143.13;1701093;84;21397;-83
2022/02/24 04:11:33;;;;;;;7.03;2.47;;;;;;;1.30;71.85;97145.42;1681182;84;20986;-83
2022/02/24 04:14:00;;;;;;;5.00;2.92;;;;;;;1.36;71.41;97138.59;1681194;84;21046;-83
2022/02/24 04:16:26;;;;;;;6.62;2.30;;;;;;;1.43;71.21;97133.85;1701016;84;21408;-83
2022/02/24 04:18:51;;;;;;;6.30;2.62;;;;;;;1.47;71.00;97139.95;1701111;84;20995;-83
2022/02/24 04:21:17;;;;;;;7.60;2.55;;;;;;;1.52;70.95;97140.09;1701022;84;21055;-83
2022/02/24 04:23:43;;;;;;;5.97;2.62;;;;;;;1.54;70.77;97133.92;1700805;84;21007;-83
2022/02/24 04:26:09;;;;;;;6.65;2.22;;;;;;;1.58;71.00;97138.37;1700873;84;21015;-83
2022/02/24 04:28:35;;;;;;;10.48;4.12;;;;;;;1.58;70.75;97131.50;1700777;84;21406;-83
2022/02/24 04:31:01;;;;;;;4.95;2.37;;;;;;;1.60;70.20;97127.08;1701053;84;20994;-83
2022/02/24 04:33:26;;;;;;;6.42;2.55;;;;;;;1.63;69.90;97124.80;1700938;84;20975;-83
2022/02/24 04:35:52;;;;;;;6.55;3.55;;;;;;;1.64;69.85;97122.13;1698699;83;20951;-83
2022/02/24 04:38:18;;;;;;;6.90;2.27;;;;;;;1.68;68.35;97126.09;1701039;84;21010;-84
2022/02/24 04:40:44;;;;;;;4.47;2.15;;;;;;;1.85;68.75;97111.27;1701198;84;20966;-83
2022/02/24 04:43:09;;;;;;;5.80;1.95;;;;;;;1.94;68.55;97115.72;1701100;84;21027;-83
2022/02/24 04:45:35;;;;;;;6.40;2.40;;;;;;;1.99;68.14;97109.35;1681166;84;21062;-84
2022/02/24 04:48:01;;;;;;;5.60;1.92;;;;;;;2.02;66.94;97098.05;1700982;84;20975;-84
2022/02/24 04:50:27;;;;;;;3.75;2.08;;;;;;;2.11;66.79;97099.93;1701092;84;21014;-83
2022/02/24 04:52:53;;;;;;;5.92;2.20;;;;;;;2.16;67.59;97099.62;1701120;84;21412;-83
2022/02/24 04:55:18;;;;;;;6.55;2.60;;;;;;;2.17;67.27;97091.81;1700711;84;21098;-83
2022/02/24 04:57:44;;;;;;;4.92;1.55;;;;;;;2.16;67.26;97097.87;1698132;84;21405;-83
2022/02/24 05:00:11;;;;;;;8.15;2.58;;;;;;;2.13;66.40;97091.69;1688855;84;21460;-83
2022/02/24 05:02:36;;;;;;;5.00;2.15;;;;;;;2.14;66.78;97090.77;1688993;84;21039;-84
2022/02/24 05:05:03;;;;;;;4.75;1.92;;;;;;;2.16;66.06;97085.52;1689190;84;21038;-83
2022/02/24 05:07:29;;;;;;;4.78;2.22;;;;;;;2.16;65.85;97089.36;1689038;85;20971;-83
2022/02/24 05:09:55;;;;;;;5.40;1.92;;;;;;;2.14;65.70;97095.07;1689073;84;21050;-83
2022/02/24 05:12:20;;;;;;;5.78;2.40;;;;;;;2.11;65.62;97092.24;1689189;85;20991;-83
2022/02/24 05:14:46;;;;;;;8.68;3.22;;;;;;;2.08;65.43;97092.00;1689311;85;21002;-83
2022/02/24 05:17:12;;;;;;;5.78;3.65;;;;;;;2.07;65.46;97092.94;1689318;85;21306;-83
2022/02/24 05:19:37;;;;;;;13.40;7.40;;;;;;;1.95;65.31;97096.41;1689085;84;21019;-83
2022/02/24 05:22:03;;;;;;;14.53;7.47;;;;;;;1.80;66.00;97097.05;1689592;84;21474;-83
2022/02/24 05:24:29;;;;;;;14.98;8.95;;;;;;;1.70;66.60;97097.34;1689282;85;21003;-83
2022/02/24 05:26:55;;;;;;;10.32;5.53;;;;;;;1.61;66.79;97105.66;1689215;84;20994;-83
2022/02/24 05:29:20;;;;;;;11.28;7.30;;;;;;;1.50;67.17;97103.06;1689159;84;21102;-83
2022/02/24 05:31:46;;;;;;;14.25;8.40;;;;;;;1.41;67.30;97103.70;1689184;84;21426;-83
2022/02/24 05:34:12;;;;;;;13.30;5.72;;;;;;;1.27;67.16;97096.16;1689242;84;21074;-83
2022/02/24 05:36:38;;;;;;;10.35;4.95;;;;;;;1.14;67.26;97100.05;1689168;85;20971;-83
2022/02/24 05:39:05;;;;;;;7.70;3.00;;;;;;;1.04;67.49;97103.69;1689425;84;20999;-83
2022/02/24 05:41:30;;;;;;;2.77;1.90;;;;;;;0.97;67.84;97101.64;1689317;84;21046;-83
2022/02/24 05:43:56;;;;;;;6.87;3.05;;;;;;;0.93;68.16;97098.94;1689196;84;21377;-83
2022/02/24 05:46:22;;;;;;;5.40;2.02;;;;;;;0.86;68.21;97100.64;1689154;84;20968;-82
2022/02/24 05:48:47;;;;;;;4.92;2.10;;;;;;;0.79;68.58;97092.20;1689335;84;21281;-83
2022/02/24 05:51:13;;;;;;;5.80;1.75;;;;;;;0.74;68.51;97092.98;1689251;84;21433;-83
2022/02/24 05:53:39;;;;;;;5.62;2.00;;;;;;;0.67;68.52;97087.93;1689188;84;21002;-83
2022/02/24 05:56:05;;;;;;;3.35;1.90;;;;;;;0.62;68.46;97089.95;1689255;85;21038;-83
2022/02/24 05:58:31;;;;;;;4.58;2.00;;;;;;;0.55;68.64;97098.52;1694011;84;21054;-83
2022/02/24 06:00:58;;;;;;;3.02;1.70;;;;;;;0.51;68.72;97096.63;1700795;84;21099;-83
2022/02/24 06:03:23;;;;;;;10.08;2.77;;;;;;;0.49;68.63;97095.91;1700878;84;20988;-83
2022/02/24 06:05:53;;;;;;;5.60;1.90;;;;;;;0.47;68.96;97092.61;1700908;84;21323;-83
2022/02/24 06:08:17;;;;;;;3.85;2.08;;;;;;;0.47;69.16;97084.94;1700012;84;20995;-83
2022/02/24 06:10:43;;;;;;;5.10;2.30;;;;;;;0.47;69.39;97081.11;1700683;84;21004;-83
2022/02/24 06:13:09;;;;;;;6.55;2.10;;;;;;;0.44;69.63;97076.66;1700532;84;21007;-83
2022/02/24 06:15:34;;;;;;;4.95;2.00;;;;;;;0.38;69.61;97077.90;1700608;84;21004;-83
2022/02/24 06:18:07;;;;;;;4.05;1.92;;;;;;;0.36;69.44;97082.77;1700590;84;21015;-83
2022/02/24 06:20:33;;;;;;;3.33;1.65;;;;;;;0.36;69.82;97078.93;1700486;84;21051;-83
2022/02/24 06:22:59;;;;;;;3.95;2.37;;;;;;;0.35;69.86;97077.29;1700328;84;21016;-83
2022/02/24 06:25:24;;;;;;;3.75;1.60;;;;;;;0.36;69.75;97077.19;1700594;83;20978;-82
2022/02/24 06:27:50;;;;;;;4.40;1.57;;;;;;;0.34;69.58;97069.27;1700606;84;21059;-83
2022/02/24 06:30:16;;;;;;;6.00;1.95;;;;;;;0.31;69.51;97070.27;1700480;83;22078;-83
2022/02/24 06:32:41;;;;;;;2.67;1.67;;;;;;;0.30;69.55;97072.00;1700732;84;20987;-83
2022/02/24 06:35:10;;;;;;;3.62;2.35;;;;;;;0.32;69.31;97074.91;1700724;84;21023;-83
2022/02/24 06:37:42;;;;;;;3.67;1.82;;;;;;;0.34;69.67;97069.27;1700024;84;21481;-83
2022/02/24 06:40:10;;;;;;;2.17;1.92;;;;;;;0.30;69.24;97070.72;1670859;84;21023;-83
2022/02/24 06:42:36;;;;;;;1.82;1.50;;;;;;;0.30;69.31;97072.00;1700419;84;21135;-82
2022/02/24 06:45:03;;;;;;;3.52;1.60;;;;;;;0.30;68.84;97075.02;1700639;84;21091;-83
2022/02/24 06:47:30;;;;;;;3.35;1.80;;;;;;;0.32;68.40;97075.73;1700604;84;21126;-83
2022/02/24 06:49:56;;;;;;;3.90;2.45;;;;;;;0.35;67.78;97072.18;1700154;84;21170;-83
2022/02/24 06:52:22;;;;;;;2.77;1.85;;;;;;;0.41;67.01;97069.20;1700736;84;21410;-83
2022/02/24 06:54:47;;;;;;;3.20;1.98;;;;;;;0.41;67.59;97055.14;1700545;84;21032;-83
2022/02/24 06:57:13;;;;;;;3.10;1.70;;;;;;;0.38;66.43;97058.73;1700633;84;21338;-83
2022/02/24 06:59:39;;;;;;;1.95;1.60;;;;;;;0.37;67.55;97052.44;1700556;84;21508;-83
2022/02/24 07:02:06;;;;;;;2.60;2.37;;;;;;;0.34;67.51;97050.91;1701012;84;20951;-84
2022/02/24 07:04:32;;;;;;;1.92;1.20;;;;;;;0.34;68.07;97048.81;1701573;83;20919;-83
2022/02/24 07:06:59;;;;;;;2.60;1.40;;;;;;;0.35;68.30;97043.59;1700919;84;21006;-83
2022/02/24 07:09:26;;;;;;;2.08;1.67;;;;;;;0.32;67.86;97038.66;1700989;84;20939;-83
2022/02/24 07:11:52;;;;;;;3.27;1.55;;;;;;;0.29;68.44;97038.88;1681211;84;21320;-83
2022/02/24 07:14:19;;;;;;;3.55;1.65;;;;;;;0.33;68.31;97033.94;1701209;84;21042;-83
2022/02/24 07:16:44;;;;;;;2.92;1.57;;;;;;;0.36;68.29;97031.63;1701110;84;20986;-82
2022/02/24 07:19:10;;;;;;;4.78;1.75;;;;;;;0.37;67.91;97023.86;1701216;84;21361;-83
2022/02/24 07:21:37;;;;;;;4.45;1.98;;;;;;;0.43;67.94;97023.89;1700805;84;21022;-83
2022/02/24 07:24:03;;;;;;;4.42;3.05;;;;;;;0.48;66.78;97034.63;1700976;84;21370;-83
2022/02/24 07:26:29;;;;;;;2.80;1.77;;;;;;;0.53;66.86;97042.82;1701037;84;21357;-83
2022/02/24 07:28:54;;;;;;;3.12;1.77;;;;;;;0.39;66.96;97010.51;1700904;84;21010;-83
2022/02/24 07:31:21;;;;;;;2.90;2.00;;;;;;;0.62;67.17;97040.09;1700858;84;21050;-83
2022/02/24 07:33:48;;;;;;;2.40;1.90;;;;;;;0.68;66.78;97044.80;1700945;84;21035;-82
2022/02/24 07:36:14;;;;;;;2.25;1.95;;;;;;;0.75;66.84;97040.89;1701013;84;21005;-83
2022/02/24 07:38:40;;;;;;;3.52;1.95;;;;;;;0.81;66.85;97041.31;1700975;84;21033;-82
2022/02/24 07:41:06;;;;;;;4.00;2.47;;;;;;;0.85;65.90;97039.34;1701191;84;20975;-83
2022/02/24 07:43:32;;;;;;;3.40;2.35;;;;;;;0.91;66.63;97038.92;1681367;84;20975;-83
2022/02/24 07:45:59;;;;;;;7.12;3.00;;;;;;;0.97;66.26;97033.83;1700705;84;21126;-83
2022/02/24 07:48:27;;;;;;;4.65;2.08;;;;;;;1.01;65.47;97025.85;1681209;84;21019;-83
2022/02/24 07:50:52;;;;;;;3.85;2.47;;;;;;;1.13;66.40;97025.44;1700974;84;21035;-83
2022/02/24 07:53:19;;;;;;;4.15;2.10;;;;;;;1.18;67.11;97022.93;1701217;84;21419;-83
2022/02/24 07:55:44;;;;;;;4.15;2.30;;;;;;;1.24;67.02;97017.01;1681248;84;21030;-83
2022/02/24 07:58:10;;;;;;;3.62;2.20;;;;;;;1.29;67.13;97017.03;1700077;84;20963;-83
2022/02/24 08:00:37;;;;;;;3.08;2.22;;;;;;;1.34;67.62;97005.20;1688977;85;21568;-83
2022/02/24 08:03:03;;;;;;;6.03;3.27;;;;;;;1.38;66.91;97006.14;1689139;84;20956;-83
2022/02/24 08:05:28;;;;;;;5.45;3.22;;;;;;;1.46;65.47;96992.34;1688767;83;21038;-83
2022/02/24 08:07:54;;;;;;;4.47;2.47;;;;;;;1.61;66.17;96990.39;1689172;84;21426;-82
2022/02/24 08:10:20;;;;;;;3.52;1.92;;;;;;;1.82;65.34;96994.44;1669521;85;20995;-83
2022/02/24 08:12:47;;;;;;;3.25;2.37;;;;;;;1.97;65.40;96983.06;1689143;85;20995;-83
2022/02/24 08:15:16;;;;;;;5.42;2.12;;;;;;;2.06;66.24;96987.48;1689014;84;21067;-83
2022/02/24 08:17:42;;;;;;;3.77;2.33;;;;;;;2.12;65.43;96982.85;1689141;84;21370;-83
2022/02/24 08:20:09;;;;;;;2.95;1.92;;;;;;;2.18;64.99;96983.20;1689237;84;21062;-83
2022/02/24 08:22:40;;;;;;;6.60;2.37;;;;;;;2.25;65.11;96984.82;1689013;85;21149;-83
2022/02/24 08:25:09;;;;;;;4.10;2.30;;;;;;;2.34;65.97;96963.62;1689079;85;20948;-83
2022/02/24 08:27:35;;;;;;;6.17;2.33;;;;;;;2.41;65.53;96964.78;1689060;84;21050;-83
2022/02/24 08:30:05;;;;;;;7.15;3.72;;;;;;;2.62;60.65;96967.47;1689041;84;21030;-83
2022/02/24 08:32:31;;;;;;;16.80;6.87;;;;;;;2.95;60.88;96962.28;1689126;85;20979;-83
2022/02/24 08:34:58;;;;;;;5.97;2.85;;;;;;;3.17;59.42;96952.41;1689187;84;21014;-83
2022/02/24 08:37:26;;;;;;;4.85;2.12;;;;;;;3.40;59.58;96958.74;1689068;84;21031;-83
2022/02/24 08:39:52;;;;;;;3.42;1.92;;;;;;;3.66;57.10;96939.95;1688810;85;21078;-83
2022/02/24 08:42:17;;;;;;;17.15;7.12;;;;;;;3.86;57.98;96932.69;1688968;85;21078;-83
2022/02/24 08:44:43;;;;;;;17.90;10.95;;;;;;;4.05;57.67;96918.65;1689055;85;21367;-83
2022/02/24 08:47:13;;;;;;;31.73;10.75;;;;;;;4.20;57.24;96909.66;1689142;85;21014;-83
2022/02/24 08:49:38;;;;;;;6.80;3.62;;;;;;;4.36;56.22;96904.02;1689013;84;21006;-83
2022/02/24 08:52:05;;;;;;;12.70;4.87;;;;;;;4.53;56.18;96907.27;1689049;84;20936;-84
2022/02/24 08:54:32;;;;;;;18.07;7.15;;;;;;;4.65;55.48;96899.44;1689133;84;20990;-83
2022/02/24 08:57:00;;;;;;;15.23;5.47;;;;;;;4.78;55.05;96900.02;1689073;85;21075;-83
2022/02/24 08:59:26;;;;;;;22.95;8.08;;;;;;;4.95;54.65;96899.36;1688947;85;21103;-84
2022/02/24 09:01:53;;;;;;;4.42;2.17;;;;;;;5.06;54.42;96896.67;1688817;85;21080;-83
2022/02/24 09:04:19;;;;;;;12.70;4.78;;;;;;;5.19;52.12;96896.38;1687215;83;20972;-83
2022/02/24 09:06:45;;;;;;;21.82;8.33;;;;;;;5.34;53.15;96891.63;1678496;85;20992;-83
2022/02/24 09:09:11;;;;;;;18.40;6.58;;;;;;;5.46;53.57;96877.66;1689024;84;21091;-83
2022/02/24 09:11:37;;;;;;;24.23;10.03;;;;;;;5.55;53.92;96877.32;1689202;85;21046;-83
2022/02/24 09:14:03;;;;;;;10.40;3.98;;;;;;;5.62;52.99;96868.88;1689039;84;20983;-83
2022/02/24 09:16:29;;;;;;;8.10;3.33;;;;;;;5.75;52.89;96858.28;1689085;85;21014;-84
2022/02/24 09:18:55;;;;;;;11.22;4.08;;;;;;;5.87;52.27;96850.71;1689089;84;20975;-84
2022/02/24 09:21:20;;;;;;;8.78;3.33;;;;;;;5.98;50.67;96849.73;1688867;84;21074;-83
2022/02/24 09:23:46;;;;;;;9.63;4.72;;;;;;;6.10;51.84;96842.64;1688883;84;21030;-84
2022/02/24 09:26:12;;;;;;;14.85;6.22;;;;;;;6.18;51.03;96834.98;1689154;85;20971;-84
2022/02/24 09:28:38;;;;;;;14.43;5.45;;;;;;;6.27;50.72;96832.84;1689022;84;21432;-84
2022/02/24 09:31:04;;;;;;;4.87;2.12;;;;;;;6.33;48.16;96833.07;1689087;85;21038;-83
2022/02/24 09:33:29;;;;;;;11.57;5.00;;;;;;;6.48;47.94;96821.78;1689199;85;21358;-84
2022/02/24 09:35:55;;;;;;;10.65;4.83;;;;;;;6.60;48.98;96817.23;1688888;85;20963;-83
2022/02/24 09:38:21;;;;;;;4.72;2.22;;;;;;;6.69;49.76;96816.84;1669065;85;21055;-84
2022/02/24 09:40:51;;;;;;;3.87;2.02;;;;;;;6.79;47.99;96820.16;1689134;85;21052;-84
2022/02/24 09:43:15;;;;;;;3.27;1.70;;;;;;;6.92;48.35;96816.73;1688569;85;21142;-84
2022/02/24 09:45:41;;;;;;;3.83;2.10;;;;;;;7.00;45.29;96817.30;1689001;85;21075;-83
2022/02/24 09:48:08;;;;;;;3.87;1.72;;;;;;;7.10;48.13;96816.72;1688981;85;20971;-84
2022/02/24 09:50:35;;;;;;;4.45;2.33;;;;;;;7.15;47.58;96818.36;1689122;85;21006;-84
2022/02/24 09:53:03;;;;;;;7.10;3.10;;;;;;;7.28;47.62;96815.40;1688930;85;20991;-84
2022/02/24 09:55:29;;;;;;;7.87;3.85;;;;;;;7.37;47.02;96808.86;1689262;84;21010;-84
2022/02/24 09:57:54;;;;;;;5.10;2.30;;;;;;;7.42;47.88;96809.20;1689240;85;21362;-84
2022/02/24 10:00:20;;;;;;;4.55;2.37;;;;;;;7.51;46.69;96797.97;1697725;84;21541;-83
2022/02/24 10:02:47;;;;;;;10.05;4.70;;;;;;;7.59;46.22;96802.36;1700480;84;21466;-84
2022/02/24 10:05:14;;;;;;;6.05;3.27;;;;;;;7.64;46.61;96796.23;1688073;82;20987;-83
2022/02/24 10:07:42;;;;;;;10.38;3.40;;;;;;;7.74;46.27;96795.66;1684441;84;21453;-84
2022/02/24 10:10:31;;;;;;;4.80;2.35;;;;;;;7.82;43.85;96791.84;1700498;84;20984;-83
2022/02/24 10:13:13;;;;;;;6.85;3.58;;;;;;;7.91;44.46;96786.20;1700560;84;21019;-84
2022/02/24 10:15:46;;;;;;;4.67;2.35;;;;;;;8.02;44.51;96782.05;1700906;84;21083;-84
2022/02/24 10:18:14;;;;;;;6.03;3.02;;;;;;;8.14;43.99;96776.13;1699406;84;21043;-84
2022/02/24 10:20:47;;;;;;;4.15;2.20;;;;;;;8.21;44.20;96770.63;1700631;84;21054;-84
2022/02/24 10:23:14;;;;;;;3.30;1.82;;;;;;;8.27;43.75;96762.70;1700517;84;21081;-84
2022/02/24 10:25:50;;;;;;;6.08;3.70;;;;;;;8.33;43.12;96760.31;1700606;84;21094;-84
2022/02/24 10:28:42;;;;;;;4.03;1.82;;;;;;;8.39;41.16;96769.25;1700599;84;21070;-84
2022/02/24 10:31:14;;;;;;;4.33;2.30;;;;;;;8.48;42.14;96755.85;1700562;84;21105;-84
2022/02/24 10:33:44;;;;;;;3.08;1.50;;;;;;;8.53;42.37;96745.81;1700572;84;21529;-84
2022/02/24 10:36:25;;;;;;;4.12;1.72;;;;;;;8.55;40.80;96743.38;1700011;84;21062;-84
2022/02/24 10:39:17;;;;;;;4.17;1.70;;;;;;;8.61;40.96;96736.25;1700672;84;21035;-84
2022/02/24 10:41:45;;;;;;;5.80;2.95;;;;;;;8.69;42.08;96735.47;1700688;84;21106;-84
2022/02/24 10:44:22;;;;;;;3.98;2.02;;;;;;;8.78;41.50;96736.27;1700645;84;21087;-84
2022/02/24 10:46:50;;;;;;;2.90;1.40;;;;;;;8.83;42.07;96740.02;1700722;84;20956;-84
2022/02/24 10:49:35;;;;;;;2.17;1.45;;;;;;;8.83;40.95;96729.65;1700675;84;21027;-85
2022/02/24 10:52:16;;;;;;;2.90;1.27;;;;;;;8.86;40.51;96732.39;1700197;84;21130;-84
2022/02/24 10:54:43;;;;;;;;;;;;;;;8.89;41.81;96735.47;1701882;84;21047;-84
2022/02/24 10:57:17;;;;;;;3.58;1.92;;;;;;;8.96;41.43;96723.50;1700439;84;20095;-84
2022/02/24 10:59:43;;;;;;;2.45;1.40;;;;;;;9.03;41.40;96723.16;1700319;84;21043;-85
2022/02/24 11:02:09;;;;;;;3.22;1.40;;;;;;;9.14;41.00;96724.61;1700697;84;21394;-84
2022/02/24 11:04:36;;;;;;;3.12;1.70;;;;;;;9.27;40.28;96720.19;1700590;84;20983;-84
2022/02/24 11:07:03;;;;;;;2.85;1.47;;;;;;;9.32;41.53;96720.53;1669135;84;21406;-85
2022/02/24 11:09:28;;;;;;;3.52;1.95;;;;;;;9.41;40.84;96720.00;1700603;83;21434;-84
2022/02/24 11:11:54;;;;;;;3.70;2.05;;;;;;;9.48;40.12;96715.79;1700445;83;21182;-84
2022/02/24 11:14:20;;;;;;;4.90;2.42;;;;;;;9.59;40.55;96720.59;1700493;84;21015;-84
2022/02/24 11:16:47;;;;;;;3.08;1.27;;;;;;;9.63;40.02;96727.91;1700460;84;21070;-84
2022/02/24 11:19:15;;;;;;;2.85;1.32;;;;;;;9.63;39.20;96720.61;1700530;84;21470;-84
2022/02/24 11:21:43;;;;;;;4.67;2.35;;;;;;;9.66;38.87;96716.87;1700453;84;21023;-84
2022/02/24 11:24:08;;;;;;;3.25;1.87;;;;;;;9.66;38.75;96707.30;1700363;84;21019;-85
2022/02/24 11:26:48;;;;;;;3.35;1.75;;;;;;;9.61;38.87;96710.41;1700595;84;20999;-84
2022/02/24 11:29:40;;;;;;;4.35;2.83;;;;;;;9.57;38.52;96709.09;1700487;84;21015;-84
2022/02/24 11:32:09;;;;;;;3.35;1.90;;;;;;;9.57;38.38;96709.59;1700155;84;21456;-84
2022/02/24 11:35:00;;;;;;;3.80;2.60;;;;;;;9.57;39.09;96707.80;1700520;84;21034;-85
2022/02/24 11:37:47;;;;;;;5.95;3.58;;;;;;;9.62;39.58;96706.83;1668572;84;21960;-84
2022/02/24 11:40:26;;;;;;;7.97;3.33;;;;;;;9.67;39.89;96697.23;1700254;84;21095;-84